createdAt,value
2022-12-29T00:00:08.205Z,97748.53
2022-12-29T00:01:09.841Z,97752.25
2022-12-29T00:02:11.999Z,97753.28
2022-12-29T00:03:13.670Z,97754.59
2022-12-29T00:04:16.275Z,97748.97
2022-12-29T00:05:17.865Z,97747.84
2022-12-29T00:06:19.429Z,97746.25
2022-12-29T00:07:20.948Z,97750.06
2022-12-29T00:08:40.253Z,97749.53
2022-12-29T00:09:42.373Z,97748.59
2022-12-29T00:10:43.913Z,97752.03
2022-12-29T00:11:45.656Z,97759.41
2022-12-29T00:13:05.684Z,97756.13
2022-12-29T00:14:26.329Z,97760.06
2022-12-29T00:15:40.232Z,97753.50
2022-12-29T00:16:44.602Z,97758.97
2022-12-29T00:17:46.169Z,97755.56
2022-12-29T00:18:48.032Z,97757.22
2022-12-29T00:20:08.260Z,97753.28
2022-12-29T00:21:36.951Z,97752.63
2022-12-29T00:22:57.253Z,97751.28
2022-12-29T00:24:17.028Z,97756.59
2022-12-29T00:25:37.476Z,97755.81
2022-12-29T00:26:57.586Z,97754.22
2022-12-29T00:28:18.149Z,97754.72
2022-12-29T00:29:38.190Z,97751.81
2022-12-29T00:30:58.508Z,97751.03
2022-12-29T00:32:18.346Z,97745.75
2022-12-29T00:33:41.015Z,97750.53
2022-12-29T00:35:01.191Z,97748.66
2022-12-29T00:36:28.093Z,97752.41
2022-12-29T00:37:48.283Z,97750.00
2022-12-29T00:39:12.815Z,97746.84
2022-12-29T00:40:33.174Z,97747.97
2022-12-29T00:41:53.800Z,97757.25
2022-12-29T00:43:13.774Z,97754.03
2022-12-29T00:44:16.005Z,97757.25
2022-12-29T00:45:17.548Z,97750.06
2022-12-29T00:46:20.436Z,97750.63
2022-12-29T00:47:22.176Z,97749.56
2022-12-29T00:48:42.274Z,97746.97
2022-12-29T00:49:43.902Z,97755.97
2022-12-29T00:50:45.444Z,97753.31
2022-12-29T00:51:47.225Z,97750.38
2022-12-29T00:52:48.745Z,97746.31
2022-12-29T00:53:50.253Z,97746.38
2022-12-29T00:54:51.793Z,97747.44
2022-12-29T00:55:53.369Z,97744.78
2022-12-29T00:56:55.038Z,97746.38
2022-12-29T00:57:56.597Z,97746.06
2022-12-29T00:59:02.578Z,97739.34
2022-12-29T01:00:04.502Z,97737.31
2022-12-29T01:01:08.275Z,97737.59
2022-12-29T01:02:11.341Z,97735.16
2022-12-29T01:03:13.064Z,97732.44
2022-12-29T01:04:15.687Z,97736.63
2022-12-29T01:05:17.225Z,97736.06
2022-12-29T01:06:19.920Z,97740.28
2022-12-29T01:07:21.659Z,97738.31
2022-12-29T01:08:23.389Z,97733.09
2022-12-29T01:09:43.503Z,97736.25
2022-12-29T01:10:45.076Z,97730.94
2022-12-29T01:11:46.665Z,97739.44
2022-12-29T01:12:48.444Z,97730.38
2022-12-29T01:13:49.983Z,97738.31
2022-12-29T01:14:51.551Z,97728.66
2022-12-29T01:15:54.209Z,97737.38
2022-12-29T01:16:56.540Z,97730.66
2022-12-29T01:17:58.139Z,97730.66
2022-12-29T01:19:00.529Z,97730.66
2022-12-29T01:20:03.445Z,97724.31
2022-12-29T01:21:07.162Z,97719.06
2022-12-29T01:22:08.735Z,97729.78
2022-12-29T01:23:10.357Z,97726.41
2022-12-29T01:24:12.072Z,97728.56
2022-12-29T01:25:13.612Z,97727.31
2022-12-29T01:26:17.831Z,97726.59
2022-12-29T01:27:19.698Z,97717.84
2022-12-29T01:28:25.896Z,97722.22
2022-12-29T01:29:27.985Z,97727.34
2022-12-29T01:30:29.577Z,97722.63
2022-12-29T01:31:31.280Z,97714.94
2022-12-29T01:32:32.902Z,97721.34
2022-12-29T01:33:34.518Z,97721.34
2022-12-29T01:34:36.098Z,97712.75
2022-12-29T01:35:37.615Z,97716.00
2022-12-29T01:36:39.211Z,97713.63
2022-12-29T01:37:40.729Z,97708.06
2022-12-29T01:38:42.922Z,97708.06
2022-12-29T01:39:44.744Z,97704.88
2022-12-29T01:40:47.332Z,97703.53
2022-12-29T01:41:48.920Z,97710.69
2022-12-29T01:42:50.509Z,97712.28
2022-12-29T01:43:57.555Z,97710.09
2022-12-29T01:45:02.684Z,97715.38
2022-12-29T01:46:04.297Z,97710.03
2022-12-29T01:47:07.108Z,97718.16
2022-12-29T01:48:10.864Z,97722.31
2022-12-29T01:49:17.432Z,97709.78
2022-12-29T01:50:35.375Z,97712.94
2022-12-29T01:51:40.097Z,97710.78
2022-12-29T01:52:47.701Z,97713.91
2022-12-29T01:53:49.362Z,97717.03
2022-12-29T01:54:54.846Z,97720.47
2022-12-29T01:56:02.048Z,97718.03
2022-12-29T01:57:09.198Z,97712.94
2022-12-29T01:58:14.776Z,97714.81
2022-12-29T01:59:21.923Z,97715.44
2022-12-29T02:00:23.677Z,97718.22
2022-12-29T02:01:25.480Z,97708.06
2022-12-29T02:02:32.464Z,97713.06
2022-12-29T02:03:35.987Z,97713.63
2022-12-29T02:04:45.232Z,97714.75
2022-12-29T02:06:03.372Z,97710.75
2022-12-29T02:07:10.972Z,97708.06
2022-12-29T02:08:13.501Z,97705.97
2022-12-29T02:09:15.041Z,97709.19
2022-12-29T02:10:16.805Z,97707.66
2022-12-29T02:11:20.049Z,97708.25
2022-12-29T02:12:24.610Z,97699.78
2022-12-29T02:13:26.647Z,97703.56
2022-12-29T02:14:28.182Z,97702.16
2022-12-29T02:15:49.998Z,97703.97
2022-12-29T02:17:18.847Z,97705.56
2022-12-29T02:18:44.638Z,97701.59
2022-12-29T02:20:04.484Z,97702.97
2022-12-29T02:21:43.481Z,97707.28
2022-12-29T02:23:08.418Z,97706.69
2022-12-29T02:24:35.018Z,97705.84
2022-12-29T02:25:51.763Z,97706.25
2022-12-29T02:26:56.306Z,97700.56
2022-12-29T02:28:16.699Z,97693.56
2022-12-29T02:29:35.623Z,97698.84
2022-12-29T02:30:55.982Z,97698.31
2022-12-29T02:32:06.802Z,97702.06
2022-12-29T02:33:44.196Z,97701.94
2022-12-29T02:35:07.135Z,97707.72
2022-12-29T02:36:36.942Z,97695.91
2022-12-29T02:37:44.318Z,97698.94
2022-12-29T02:39:14.911Z,97693.25
2022-12-29T02:40:45.742Z,97689.25
2022-12-29T02:42:19.198Z,97692.13
2022-12-29T02:43:21.229Z,97702.00
2022-12-29T02:44:43.315Z,97694.28
2022-12-29T02:46:04.357Z,97687.13
2022-12-29T02:47:10.544Z,97695.06
2022-12-29T02:48:19.056Z,97692.47
2022-12-29T02:49:28.810Z,97689.31
2022-12-29T02:50:45.248Z,97696.66
2022-12-29T02:51:49.324Z,97691.94
2022-12-29T02:52:58.061Z,97693.53
2022-12-29T02:54:18.833Z,97698.13
2022-12-29T02:55:20.444Z,97695.97
2022-12-29T02:56:22.781Z,97702.03
2022-12-29T02:57:24.332Z,97693.41
2022-12-29T02:58:25.992Z,97695.41
2022-12-29T02:59:27.777Z,97693.47
2022-12-29T03:00:29.794Z,97690.75
2022-12-29T03:02:17.382Z,97691.53
2022-12-29T03:03:30.742Z,97693.72
2022-12-29T03:04:38.089Z,97703.00
2022-12-29T03:06:17.296Z,97701.91
2022-12-29T03:07:41.194Z,97698.38
2022-12-29T03:08:50.730Z,97699.59
2022-12-29T03:10:22.875Z,97692.66
2022-12-29T03:11:50.966Z,97701.03
2022-12-29T03:13:24.168Z,97690.50
2022-12-29T03:14:51.692Z,97686.75
2022-12-29T03:16:08.319Z,97690.34
2022-12-29T03:17:20.781Z,97684.81
2022-12-29T03:18:58.387Z,97686.41
2022-12-29T03:20:08.749Z,97681.09
2022-12-29T03:21:45.300Z,97684.94
2022-12-29T03:22:50.619Z,97683.84
2022-12-29T03:23:52.512Z,97688.13
2022-12-29T03:25:00.212Z,97683.31
2022-12-29T03:26:07.995Z,97688.81
2022-12-29T03:27:14.773Z,97683.69
2022-12-29T03:28:22.908Z,97692.19
2022-12-29T03:29:25.578Z,97688.47
2022-12-29T03:30:29.593Z,97685.50
2022-12-29T03:31:31.427Z,97684.72
2022-12-29T03:32:43.106Z,97690.03
2022-12-29T03:33:46.429Z,97679.38
2022-12-29T03:34:50.012Z,97690.81
2022-12-29T03:35:55.394Z,97692.75
2022-12-29T03:37:09.191Z,97698.06
2022-12-29T03:38:14.901Z,97696.72
2022-12-29T03:39:19.524Z,97696.53
2022-12-29T03:40:23.987Z,97689.59
2022-12-29T03:41:29.614Z,97692.75
2022-12-29T03:42:35.022Z,97692.19
2022-12-29T03:43:36.796Z,97692.75
2022-12-29T03:44:41.084Z,97691.19
2022-12-29T03:45:42.695Z,97693.34
2022-12-29T03:46:44.350Z,97700.00
2022-12-29T03:47:46.010Z,97693.91
2022-12-29T03:48:47.538Z,97694.69
2022-12-29T03:49:50.289Z,97702.91
2022-12-29T03:50:51.862Z,97706.19
2022-12-29T03:51:53.432Z,97706.22
2022-12-29T03:52:54.979Z,97710.53
2022-12-29T03:53:56.763Z,97703.34
2022-12-29T03:54:58.312Z,97705.22
2022-12-29T03:55:59.921Z,97702.06
2022-12-29T03:57:01.532Z,97702.06
2022-12-29T03:58:03.142Z,97709.19
2022-12-29T03:59:04.671Z,97704.66
2022-12-29T04:00:07.513Z,97708.50
2022-12-29T04:01:09.270Z,97701.41
2022-12-29T04:02:10.937Z,97701.22
2022-12-29T04:03:12.589Z,97707.38
2022-12-29T04:04:14.256Z,97708.75
2022-12-29T04:05:16.189Z,97706.66
2022-12-29T04:06:17.761Z,97709.94
2022-12-29T04:07:19.350Z,97707.31
2022-12-29T04:08:20.911Z,97706.78
2022-12-29T04:09:22.428Z,97706.78
2022-12-29T04:10:24.056Z,97706.78
2022-12-29T04:11:31.231Z,97707.00
2022-12-29T04:12:34.665Z,97714.72
2022-12-29T04:13:36.229Z,97711.56
2022-12-29T04:14:37.785Z,97708.91
2022-12-29T04:15:39.409Z,97706.25
2022-12-29T04:16:41.191Z,97711.53
2022-12-29T04:17:42.951Z,97715.75
2022-12-29T04:18:44.469Z,97705.09
2022-12-29T04:19:46.063Z,97710.44
2022-12-29T04:21:03.902Z,97711.78
2022-12-29T04:22:05.565Z,97711.75
2022-12-29T04:23:07.984Z,97720.00
2022-12-29T04:24:09.626Z,97716.28
2022-12-29T04:25:11.192Z,97711.19
2022-12-29T04:26:12.909Z,97715.44
2022-12-29T04:27:14.439Z,97711.44
2022-12-29T04:28:17.272Z,97715.16
2022-12-29T04:29:20.583Z,97714.09
2022-12-29T04:30:22.108Z,97717.81
2022-12-29T04:31:23.737Z,97716.81
2022-12-29T04:32:25.380Z,97711.97
2022-12-29T04:33:27.007Z,97717.06
2022-12-29T04:34:28.534Z,97716.28
2022-12-29T04:35:30.101Z,97713.63
2022-12-29T04:36:31.693Z,97721.03
2022-12-29T04:37:33.292Z,97722.63
2022-12-29T04:38:35.770Z,97720.25
2022-12-29T04:39:37.334Z,97719.97
2022-12-29T04:40:40.743Z,97717.78
2022-12-29T04:41:42.270Z,97723.03
2022-12-29T04:42:43.813Z,97714.44
2022-12-29T04:43:45.420Z,97718.41
2022-12-29T04:44:47.067Z,97715.41
2022-12-29T04:45:48.902Z,97723.06
2022-12-29T04:46:50.488Z,97725.38
2022-12-29T04:47:52.046Z,97725.88
2022-12-29T04:48:53.685Z,97724.22
2022-12-29T04:49:55.275Z,97727.09
2022-12-29T04:50:56.843Z,97723.09
2022-12-29T04:51:58.398Z,97727.06
2022-12-29T04:52:59.917Z,97733.41
2022-12-29T04:54:01.494Z,97728.81
2022-12-29T04:55:03.221Z,97732.22
2022-12-29T04:56:05.185Z,97728.41
2022-12-29T04:57:06.796Z,97734.50
2022-12-29T04:58:08.387Z,97728.56
2022-12-29T04:59:09.956Z,97725.84
2022-12-29T05:00:12.276Z,97733.00
2022-12-29T05:01:14.026Z,97733.22
2022-12-29T05:02:16.687Z,97730.56
2022-12-29T05:03:20.293Z,97728.47
2022-12-29T05:04:22.018Z,97742.31
2022-12-29T05:05:23.647Z,97734.25
2022-12-29T05:06:25.221Z,97733.66
2022-12-29T05:07:26.862Z,97731.25
2022-12-29T05:08:28.800Z,97738.38
2022-12-29T05:09:30.935Z,97729.00
2022-12-29T05:10:32.536Z,97729.25
2022-12-29T05:11:34.061Z,97731.31
2022-12-29T05:12:38.167Z,97733.41
2022-12-29T05:13:39.767Z,97737.59
2022-12-29T05:14:41.408Z,97740.78
2022-12-29T05:15:56.420Z,97743.94
2022-12-29T05:17:54.424Z,97741.19
2022-12-29T05:18:56.013Z,97744.59
2022-12-29T05:19:57.704Z,97747.06
2022-12-29T05:20:59.763Z,97743.38
2022-12-29T05:22:01.428Z,97740.19
2022-12-29T05:23:03.076Z,97741.84
2022-12-29T05:24:05.016Z,97739.19
2022-12-29T05:25:06.909Z,97748.25
2022-12-29T05:26:08.608Z,97749.34
2022-12-29T05:27:10.227Z,97746.91
2022-12-29T05:28:11.830Z,97752.25
2022-12-29T05:29:13.437Z,97744.66
2022-12-29T05:30:15.111Z,97747.50
2022-12-29T05:31:16.702Z,97746.84
2022-12-29T05:32:18.970Z,97751.50
2022-12-29T05:33:20.654Z,97748.88
2022-12-29T05:34:22.299Z,97756.94
2022-12-29T05:35:23.939Z,97757.00
2022-12-29T05:36:25.619Z,97752.72
2022-12-29T05:37:27.140Z,97745.59
2022-12-29T05:38:28.680Z,97745.91
2022-12-29T05:39:30.474Z,97751.03
2022-12-29T05:40:32.009Z,97751.81
2022-12-29T05:41:35.302Z,97743.81
2022-12-29T05:42:36.873Z,97745.41
2022-12-29T05:43:38.399Z,97745.91
2022-12-29T05:44:39.906Z,97743.56
2022-12-29T05:45:41.465Z,97748.09
2022-12-29T05:46:43.109Z,97752.41
2022-12-29T05:47:44.714Z,97746.28
2022-12-29T05:48:46.249Z,97752.41
2022-12-29T05:49:47.843Z,97750.00
2022-12-29T05:50:50.860Z,97745.22
2022-12-29T05:52:44.950Z,97745.53
2022-12-29T05:53:46.776Z,97749.78
2022-12-29T05:54:48.345Z,97752.94
2022-12-29T05:55:50.597Z,97758.78
2022-12-29T05:56:52.189Z,97758.75
2022-12-29T05:57:53.812Z,97756.03
2022-12-29T05:58:55.404Z,97755.44
2022-12-29T05:59:56.956Z,97756.34
2022-12-29T06:00:58.543Z,97755.56
2022-12-29T06:02:00.299Z,97762.47
2022-12-29T06:03:02.609Z,97758.16
2022-12-29T06:04:04.558Z,97762.16
2022-12-29T06:05:06.465Z,97762.09
2022-12-29T06:06:08.164Z,97758.63
2022-12-29T06:07:09.727Z,97763.97
2022-12-29T06:08:11.244Z,97757.25
2022-12-29T06:09:12.890Z,97759.66
2022-12-29T06:10:14.496Z,97768.16
2022-12-29T06:11:16.091Z,97762.53
2022-12-29T06:12:17.708Z,97772.91
2022-12-29T06:13:19.299Z,97767.59
2022-12-29T06:14:21.296Z,97770.78
2022-12-29T06:15:23.010Z,97772.34
2022-12-29T06:16:24.853Z,97776.09
2022-12-29T06:17:26.479Z,97775.31
2022-12-29T06:18:28.115Z,97771.78
2022-12-29T06:19:29.638Z,97772.81
2022-12-29T06:20:31.157Z,97769.59
2022-12-29T06:21:32.708Z,97773.28
2022-12-29T06:22:34.360Z,97774.06
2022-12-29T06:23:35.964Z,97772.97
2022-12-29T06:24:37.569Z,97768.50
2022-12-29T06:25:39.108Z,97773.81
2022-12-29T06:26:41.256Z,97774.34
2022-12-29T06:27:43.199Z,97774.88
2022-12-29T06:28:44.715Z,97778.81
2022-12-29T06:29:47.133Z,97779.09
2022-12-29T06:30:49.653Z,97780.13
2022-12-29T06:31:52.161Z,97785.41
2022-12-29T06:32:53.926Z,97776.31
2022-12-29T06:33:55.489Z,97785.91
2022-12-29T06:34:57.025Z,97774.97
2022-12-29T06:35:58.564Z,97776.56
2022-12-29T06:37:00.203Z,97777.56
2022-12-29T06:38:01.837Z,97779.44
2022-12-29T06:39:03.455Z,97783.69
2022-12-29T06:40:05.530Z,97792.78
2022-12-29T06:41:07.130Z,97790.63
2022-12-29T06:42:10.293Z,97793.78
2022-12-29T06:43:12.015Z,97796.66
2022-12-29T06:44:13.576Z,97789.97
2022-12-29T06:45:15.194Z,97792.88
2022-12-29T06:46:16.822Z,97791.50
2022-12-29T06:47:19.524Z,97792.53
2022-12-29T06:48:21.155Z,97786.59
2022-12-29T06:49:22.739Z,97787.41
2022-12-29T06:50:24.340Z,97786.06
2022-12-29T06:51:25.919Z,97794.25
2022-12-29T06:52:29.516Z,97791.81
2022-12-29T06:53:31.068Z,97794.28
2022-12-29T06:54:34.431Z,97795.72
2022-12-29T06:55:36.251Z,97792.97
2022-12-29T06:56:37.862Z,97795.44
2022-12-29T06:57:39.452Z,97802.66
2022-12-29T06:58:41.095Z,97797.31
2022-12-29T06:59:42.670Z,97801.31
2022-12-29T07:00:44.326Z,97796.75
2022-12-29T07:01:46.014Z,97803.66
2022-12-29T07:02:47.783Z,97799.13
2022-12-29T07:03:49.568Z,97797.75
2022-12-29T07:04:51.157Z,97801.50
2022-12-29T07:05:52.710Z,97793.22
2022-12-29T07:06:57.169Z,97794.00
2022-12-29T07:07:59.141Z,97803.91
2022-12-29T07:09:00.747Z,97800.50
2022-12-29T07:10:02.310Z,97803.16
2022-12-29T07:11:03.955Z,97801.31
2022-12-29T07:12:05.727Z,97802.09
2022-12-29T07:13:08.798Z,97802.59
2022-12-29T07:14:12.024Z,97799.13
2022-12-29T07:15:13.833Z,97805.25
2022-12-29T07:16:15.575Z,97805.25
2022-12-29T07:17:17.121Z,97807.38
2022-12-29T07:18:18.819Z,97802.50
2022-12-29T07:19:20.466Z,97806.50
2022-12-29T07:20:26.778Z,97806.69
2022-12-29T07:21:28.652Z,97801.28
2022-12-29T07:22:30.161Z,97800.69
2022-12-29T07:23:32.236Z,97806.03
2022-12-29T07:24:33.820Z,97806.03
2022-12-29T07:25:36.950Z,97799.84
2022-12-29T07:26:38.567Z,97794.78
2022-12-29T07:27:40.124Z,97800.69
2022-12-29T07:28:42.874Z,97798.63
2022-12-29T07:29:44.468Z,97801.88
2022-12-29T07:30:47.083Z,97804.25
2022-12-29T07:31:48.688Z,97804.53
2022-12-29T07:32:50.358Z,97806.69
2022-12-29T07:33:51.944Z,97804.53
2022-12-29T07:34:53.623Z,97807.69
2022-12-29T07:35:55.218Z,97805.31
2022-12-29T07:36:56.888Z,97797.63
2022-12-29T07:37:58.518Z,97808.84
2022-12-29T07:39:00.150Z,97800.34
2022-12-29T07:40:04.540Z,97802.22
2022-12-29T07:41:06.412Z,97806.25
2022-12-29T07:42:08.118Z,97805.25
2022-12-29T07:43:09.848Z,97804.69
2022-12-29T07:44:11.431Z,97803.59
2022-12-29T07:45:13.175Z,97797.69
2022-12-29T07:46:55.947Z,97801.34
2022-12-29T07:47:36.362Z,97803.44
2022-12-29T07:48:38.151Z,97799.41
2022-12-29T07:49:39.764Z,97810.28
2022-12-29T07:50:41.335Z,97804.94
2022-12-29T07:51:42.919Z,97805.47
2022-12-29T07:52:45.820Z,97802.00
2022-12-29T07:53:47.365Z,97805.63
2022-12-29T07:54:48.906Z,97799.13
2022-12-29T07:55:50.485Z,97802.88
2022-12-29T07:56:52.403Z,97804.09
2022-12-29T07:57:55.331Z,97798.09
2022-12-29T07:58:56.920Z,97805.25
2022-12-29T07:59:58.619Z,97802.81
2022-12-29T08:01:00.402Z,97810.94
2022-12-29T08:02:02.214Z,97803.44
2022-12-29T08:03:03.983Z,97805.88
2022-12-29T08:04:06.434Z,97804.59
2022-12-29T08:05:08.356Z,97807.19
2022-12-29T08:06:11.632Z,97808.97
2022-12-29T08:07:13.246Z,97809.50
2022-12-29T08:08:14.803Z,97815.31
2022-12-29T08:09:21.953Z,97810.41
2022-12-29T08:10:24.689Z,97810.81
2022-12-29T08:11:26.207Z,97815.59
2022-12-29T08:12:27.832Z,97810.16
2022-12-29T08:13:29.395Z,97817.75
2022-12-29T08:14:31.049Z,97811.63
2022-12-29T08:15:32.890Z,97801.97
2022-12-29T08:16:34.591Z,97817.19
2022-12-29T08:17:36.266Z,97811.69
2022-12-29T08:18:37.819Z,97817.22
2022-12-29T08:19:39.646Z,97818.53
2022-12-29T08:20:41.578Z,97816.06
2022-12-29T08:21:43.223Z,97825.53
2022-12-29T08:22:44.732Z,97822.34
2022-12-29T08:23:46.269Z,97822.63
2022-12-29T08:24:47.896Z,97831.75
2022-12-29T08:25:58.536Z,97815.75
2022-12-29T08:27:06.281Z,97822.25
2022-12-29T08:28:13.694Z,97824.75
2022-12-29T08:29:15.269Z,97816.41
2022-12-29T08:30:17.487Z,97815.47
2022-12-29T08:31:19.161Z,97822.69
2022-12-29T08:32:20.911Z,97814.91
2022-12-29T08:33:22.510Z,97809.13
2022-12-29T08:34:24.157Z,97818.09
2022-12-29T08:35:25.876Z,97814.78
2022-12-29T08:36:27.464Z,97818.38
2022-12-29T08:37:31.294Z,97816.16
2022-12-29T08:38:33.456Z,97815.63
2022-12-29T08:39:35.457Z,97819.47
2022-12-29T08:40:36.980Z,97813.63
2022-12-29T08:41:38.579Z,97812.56
2022-12-29T08:42:40.307Z,97811.75
2022-12-29T08:43:41.881Z,97812.47
2022-12-29T08:44:43.636Z,97810.38
2022-12-29T08:45:45.246Z,97817.38
2022-12-29T08:46:46.864Z,97810.16
2022-12-29T08:47:48.446Z,97805.53
2022-12-29T08:48:50.011Z,97817.22
2022-12-29T08:49:51.559Z,97814.47
2022-12-29T08:50:53.220Z,97811.16
2022-12-29T08:51:54.887Z,97805.38
2022-12-29T08:52:56.496Z,97807.47
2022-12-29T08:53:58.161Z,97809.25
2022-12-29T08:54:59.724Z,97809.25
2022-12-29T08:56:05.144Z,97796.56
2022-12-29T08:57:07.308Z,97804.56
2022-12-29T08:58:08.896Z,97801.91
2022-12-29T08:59:10.448Z,97793.81
2022-12-29T09:00:12.364Z,97794.41
2022-12-29T09:01:14.282Z,97798.16
2022-12-29T09:02:22.060Z,97799.56
2022-12-29T09:04:03.788Z,97795.72
2022-12-29T09:04:48.111Z,97791.47
2022-12-29T09:05:50.826Z,97788.88
2022-12-29T09:06:52.392Z,97800.13
2022-12-29T09:07:53.960Z,97791.72
2022-12-29T09:08:56.472Z,97788.78
2022-12-29T09:09:58.071Z,97790.03
2022-12-29T09:11:11.828Z,97788.88
2022-12-29T09:12:13.531Z,97790.06
2022-12-29T09:13:16.453Z,97781.28
2022-12-29T09:14:18.024Z,97784.16
2022-12-29T09:15:19.543Z,97785.53
2022-12-29T09:16:23.686Z,97779.69
2022-12-29T09:17:44.563Z,97783.81
2022-12-29T09:18:46.492Z,97782.53
2022-12-29T09:19:48.121Z,97785.13
2022-12-29T09:20:49.693Z,97785.03
2022-12-29T09:21:51.237Z,97774.66
2022-12-29T09:22:52.772Z,97780.78
2022-12-29T09:23:54.359Z,97780.13
2022-12-29T09:24:55.906Z,97772.56
2022-12-29T09:25:57.789Z,97770.41
2022-12-29T09:26:59.321Z,97772.34
2022-12-29T09:28:00.912Z,97769.59
2022-12-29T09:29:02.422Z,97763.16
2022-12-29T09:30:05.427Z,97771.38
2022-12-29T09:31:07.613Z,97769.09
2022-12-29T09:32:13.922Z,97765.03
2022-12-29T09:33:19.393Z,97762.28
2022-12-29T09:34:20.980Z,97759.47
2022-12-29T09:35:22.573Z,97756.97
2022-12-29T09:36:24.102Z,97759.59
2022-12-29T09:37:25.845Z,97758.41
2022-12-29T09:38:28.424Z,97759.97
2022-12-29T09:39:30.030Z,97752.19
2022-12-29T09:40:34.219Z,97757.66
2022-12-29T09:41:44.150Z,97754.59
2022-12-29T09:42:59.170Z,97750.44
2022-12-29T09:44:34.643Z,97753.31
2022-12-29T09:45:44.540Z,97754.34
2022-12-29T09:46:50.760Z,97752.53
2022-12-29T09:47:52.961Z,97754.63
2022-12-29T09:49:00.106Z,97755.66
2022-12-29T09:50:12.282Z,97745.97
2022-12-29T09:51:18.294Z,97748.75
2022-12-29T09:52:32.444Z,97749.34
2022-12-29T09:54:03.415Z,97746.66
2022-12-29T09:55:14.344Z,97752.00
2022-12-29T09:56:22.813Z,97741.19
2022-12-29T09:57:37.049Z,97736.81
2022-12-29T09:59:01.141Z,97739.16
2022-12-29T10:00:13.925Z,97739.41
2022-12-29T10:01:42.624Z,97728.97
2022-12-29T10:02:50.104Z,97734.31
2022-12-29T10:03:54.357Z,97736.88
2022-12-29T10:04:55.993Z,97732.66
2022-12-29T10:06:08.991Z,97733.63
2022-12-29T10:07:31.954Z,97726.59
2022-12-29T10:08:40.454Z,97735.53
2022-12-29T10:10:11.196Z,97727.75
2022-12-29T10:11:32.568Z,97730.91
2022-12-29T10:12:48.624Z,97725.91
2022-12-29T10:14:15.735Z,97718.34
2022-12-29T10:16:00.925Z,97726.38
2022-12-29T10:17:34.388Z,97724.25
2022-12-29T10:18:38.689Z,97722.44
2022-12-29T10:20:36.352Z,97718.22
2022-12-29T10:22:11.685Z,97719.41
2022-12-29T10:23:33.327Z,97717.38
2022-12-29T10:24:38.815Z,97713.19
2022-12-29T10:25:43.179Z,97708.97
2022-12-29T10:26:46.839Z,97709.34
2022-12-29T10:27:50.150Z,97707.75
2022-12-29T10:28:54.874Z,97710.84
2022-12-29T10:29:57.340Z,97714.56
2022-12-29T10:31:06.754Z,97713.19
2022-12-29T10:32:33.235Z,97705.69
2022-12-29T10:33:41.521Z,97711.50
2022-12-29T10:34:48.317Z,97704.94
2022-12-29T10:35:51.108Z,97702.94
2022-12-29T10:36:59.659Z,97703.72
2022-12-29T10:38:13.180Z,97703.69
2022-12-29T10:39:29.614Z,97699.97
2022-12-29T10:40:58.738Z,97696.38
2022-12-29T10:42:27.332Z,97698.16
2022-12-29T10:43:38.327Z,97691.56
2022-12-29T10:44:39.939Z,97698.50
2022-12-29T10:45:41.637Z,97692.41
2022-12-29T10:46:44.953Z,97694.97
2022-12-29T10:48:00.673Z,97690.56
2022-12-29T10:49:02.919Z,97692.03
2022-12-29T10:50:05.650Z,97689.25
2022-12-29T10:51:09.641Z,97687.03
2022-12-29T10:52:12.828Z,97687.81
2022-12-29T10:53:22.972Z,97690.53
2022-12-29T10:54:34.384Z,97695.28
2022-12-29T10:55:39.172Z,97691.25
2022-12-29T10:56:46.035Z,97684.44
2022-12-29T10:57:48.785Z,97677.97
2022-12-29T10:58:51.687Z,97684.28
2022-12-29T10:59:53.336Z,97687.63
2022-12-29T11:00:55.885Z,97679.28
2022-12-29T11:02:12.824Z,97683.22
2022-12-29T11:03:27.949Z,97683.44
2022-12-29T11:04:54.169Z,97678.06
2022-12-29T11:06:22.472Z,97675.56
2022-12-29T11:07:27.270Z,97682.50
2022-12-29T11:08:42.057Z,97673.19
2022-12-29T11:09:44.510Z,97676.22
2022-12-29T11:10:47.242Z,97675.75
2022-12-29T11:11:48.885Z,97678.75
2022-12-29T11:12:58.013Z,97674.00
2022-12-29T11:14:26.966Z,97671.34
2022-12-29T11:15:28.902Z,97667.06
2022-12-29T11:16:35.848Z,97667.25
2022-12-29T11:17:57.109Z,97665.03
2022-12-29T11:18:59.408Z,97665.81
2022-12-29T11:20:28.356Z,97661.56
2022-12-29T11:21:41.434Z,97665.81
2022-12-29T11:22:45.223Z,97662.66
2022-12-29T11:23:57.385Z,97660.44
2022-12-29T11:25:11.267Z,97654.16
2022-12-29T11:26:23.905Z,97650.66
2022-12-29T11:27:27.335Z,97651.59
2022-12-29T11:28:31.655Z,97652.06
2022-12-29T11:29:43.863Z,97652.84
2022-12-29T11:30:45.459Z,97643.38
2022-12-29T11:31:52.795Z,97638.31
2022-12-29T11:32:56.312Z,97636.72
2022-12-29T11:33:57.888Z,97639.72
2022-12-29T11:35:00.131Z,97639.41
2022-12-29T11:36:14.945Z,97632.28
2022-12-29T11:37:28.141Z,97620.91
2022-12-29T11:38:37.134Z,97629.28
2022-12-29T11:39:50.943Z,97629.13
2022-12-29T11:40:52.868Z,97624.38
2022-12-29T11:41:55.007Z,97623.41
2022-12-29T11:43:03.590Z,97621.19
2022-12-29T11:44:06.858Z,97622.94
2022-12-29T11:45:17.560Z,97626.25
2022-12-29T11:46:24.864Z,97614.56
2022-12-29T11:47:32.926Z,97608.06
2022-12-29T11:48:41.610Z,97613.25
2022-12-29T11:49:51.204Z,97615.47
2022-12-29T11:51:01.966Z,97606.28
2022-12-29T11:52:03.736Z,97610.75
2022-12-29T11:53:28.002Z,97610.44
2022-12-29T11:54:37.240Z,97606.31
2022-12-29T11:55:38.870Z,97613.13
2022-12-29T11:56:43.472Z,97614.66
2022-12-29T11:57:45.984Z,97607.41
2022-12-29T11:58:50.380Z,97613.59
2022-12-29T11:59:57.142Z,97613.13
2022-12-29T12:01:03.385Z,97610.75
2022-12-29T12:02:16.138Z,97609.16
2022-12-29T12:03:23.759Z,97606.91
2022-12-29T12:04:35.321Z,97606.44
2022-12-29T12:05:46.458Z,97600.25
2022-12-29T12:07:10.065Z,97604.34
2022-12-29T12:08:24.373Z,97606.38
2022-12-29T12:09:35.550Z,97605.88
2022-12-29T12:10:45.909Z,97597.94
2022-12-29T12:11:48.233Z,97602.56
2022-12-29T12:12:57.398Z,97598.09
2022-12-29T12:14:13.013Z,97605.84
2022-12-29T12:15:23.115Z,97605.66
2022-12-29T12:16:40.841Z,97601.66
2022-12-29T12:17:56.497Z,97604.13
2022-12-29T12:19:04.909Z,97599.88
2022-12-29T12:20:19.231Z,97594.56
2022-12-29T12:21:45.433Z,97590.97
2022-12-29T12:23:06.718Z,97595.56
2022-12-29T12:24:40.377Z,97588.78
2022-12-29T12:25:53.092Z,97587.19
2022-12-29T12:27:20.428Z,97589.13
2022-12-29T12:28:36.970Z,97583.63
2022-12-29T12:29:56.398Z,97589.38
2022-12-29T12:31:01.042Z,97584.44
2022-12-29T12:32:16.197Z,97581.72
2022-12-29T12:33:28.975Z,97582.00
2022-12-29T12:34:38.092Z,97583.31
2022-12-29T12:36:03.809Z,97584.59
2022-12-29T12:37:53.207Z,97577.03
2022-12-29T12:39:12.236Z,97579.53
2022-12-29T12:40:19.943Z,97582.84
2022-12-29T12:41:27.340Z,97581.06
2022-12-29T12:42:44.171Z,97578.25
2022-12-29T12:43:52.041Z,97582.84
2022-12-29T12:45:21.041Z,97585.53
2022-12-29T12:46:50.177Z,97579.03
2022-12-29T12:47:59.440Z,97580.16
2022-12-29T12:49:35.353Z,97583.34
2022-12-29T12:51:08.218Z,97579.25
2022-12-29T12:52:16.041Z,97582.28
2022-12-29T12:53:26.330Z,97572.50
2022-12-29T12:55:11.925Z,97583.25
2022-12-29T12:56:25.739Z,97581.06
2022-12-29T12:57:48.910Z,97580.47
2022-12-29T12:58:50.426Z,97579.16
2022-12-29T13:00:01.946Z,97579.34
2022-12-29T13:01:23.720Z,97586.16
2022-12-29T13:02:59.282Z,97581.75
2022-12-29T13:04:37.784Z,97578.28
2022-12-29T13:05:56.532Z,97592.34
2022-12-29T13:07:35.327Z,97583.66
2022-12-29T13:09:03.047Z,97589.69